Time;durP1;ratioP1;P1;durP2;ratioP2;P2;SDS_P1;SDS_P2;PMS_P1;PMS_P2;Temp;Humidity;BMP_temperature;BMP_pressure;BME280_temperature;BME280_humidity;BME280_pressure;Samples;Min_cycle;Max_cycle;Signal;HPM_P1;HPM_P2
2021/08/10 00:01:36;;;;;;;8.75;4.80;;;;;;;24.28;57.24;100463.39;1649478;87;21332;-63
2021/08/10 00:04:09;;;;;;;9.75;4.47;;;;;;;24.29;56.96;100462.88;1648152;87;21205;-63
2021/08/10 00:06:42;;;;;;;9.25;5.10;;;;;;;24.31;56.80;100464.30;1648710;87;21205;-63
2021/08/10 00:09:15;;;;;;;10.15;5.00;;;;;;;24.32;56.74;100459.22;1648416;87;21205;-63
2021/08/10 00:11:48;;;;;;;12.68;4.70;;;;;;;24.33;56.63;100460.05;1649760;87;21285;-63
2021/08/10 00:14:22;;;;;;;8.95;4.60;;;;;;;24.35;56.53;100457.96;1650541;87;21288;-63
2021/08/10 00:16:56;;;;;;;13.35;4.80;;;;;;;24.34;56.27;100455.80;1648151;87;21170;-63
2021/08/10 00:19:29;;;;;;;10.88;5.10;;;;;;;24.34;56.13;100454.98;1648210;87;21225;-63
2021/08/10 00:22:03;;;;;;;15.60;4.95;;;;;;;24.32;55.93;100451.70;1649644;87;21227;-63
2021/08/10 00:24:35;;;;;;;11.08;4.92;;;;;;;24.31;55.62;100461.61;1648381;87;21205;-63
2021/08/10 00:27:09;;;;;;;10.03;4.58;;;;;;;24.30;55.29;100454.61;1648466;87;21264;-63
2021/08/10 00:29:43;;;;;;;10.53;4.35;;;;;;;24.28;55.11;100456.70;1648404;87;21202;-63
2021/08/10 00:32:16;;;;;;;7.25;4.45;;;;;;;24.27;54.81;100456.90;1649973;87;21319;-62
2021/08/10 00:34:50;;;;;;;7.85;4.10;;;;;;;24.25;54.63;100453.63;1645025;87;21370;-63
2021/08/10 00:37:24;;;;;;;14.13;4.12;;;;;;;24.28;54.24;100454.02;1641166;87;21304;-63
2021/08/10 00:39:58;;;;;;;7.97;3.98;;;;;;;24.31;53.28;100458.94;1645324;86;21305;-64
2021/08/10 00:42:31;;;;;;;8.70;3.83;;;;;;;24.35;52.61;100454.77;1670188;86;21288;-64
2021/08/10 00:45:05;;;;;;;7.28;3.62;;;;;;;24.41;51.99;100457.10;1662740;86;21277;-63
2021/08/10 00:47:39;;;;;;;8.85;3.15;;;;;;;24.45;51.83;100453.76;1619894;87;21169;-64
2021/08/10 00:50:13;;;;;;;11.35;4.20;;;;;;;24.49;51.44;100450.92;1645886;86;21191;-63
2021/08/10 00:52:52;;;;;;;10.32;4.20;;;;;;;24.54;51.14;100444.91;1654956;85;21206;-64
2021/08/10 00:55:27;;;;;;;10.15;3.85;;;;;;;24.58;51.50;100446.91;1643781;85;21164;-63
2021/08/10 00:58:00;;;;;;;9.88;3.77;;;;;;;24.61;51.76;100444.31;1662123;86;21276;-63
2021/08/10 01:00:34;;;;;;;12.70;3.83;;;;;;;24.63;51.92;100440.89;1675196;83;21312;-64
2021/08/10 01:03:07;;;;;;;9.85;4.00;;;;;;;24.63;51.84;100434.20;1700191;84;21198;-63
2021/08/10 01:05:47;;;;;;;9.58;4.00;;;;;;;24.63;51.99;100435.02;1699431;84;21170;-63
2021/08/10 01:08:44;;;;;;;11.20;4.22;;;;;;;24.62;52.15;100441.95;1697108;84;21943;-65
2021/08/10 01:11:39;;;;;;;8.28;4.05;;;;;;;24.60;52.42;100442.66;1700839;84;21130;-63
2021/08/10 01:14:20;;;;;;;9.33;3.77;;;;;;;24.58;52.54;100444.23;1700338;84;21201;-63
2021/08/10 01:17:03;;;;;;;7.70;3.75;;;;;;;24.56;52.46;100437.47;1683330;84;21260;-65
2021/08/10 01:19:49;;;;;;;8.95;4.05;;;;;;;24.55;52.20;100435.30;1678678;84;21320;-64
2021/08/10 01:22:23;;;;;;;11.33;3.83;;;;;;;24.55;51.73;100439.31;1701077;84;21209;-64
2021/08/10 01:25:08;;;;;;;9.10;3.42;;;;;;;24.55;51.57;100449.23;1700907;84;21173;-64
2021/08/10 01:28:04;;;;;;;11.18;3.62;;;;;;;24.55;50.51;100451.91;1700601;84;21280;-64
2021/08/10 01:31:08;;;;;;;9.08;4.08;;;;;;;24.56;50.66;100450.34;1699776;84;21300;-64
2021/08/10 01:33:45;;;;;;;13.15;3.75;;;;;;;24.58;50.78;100442.07;1699409;84;21280;-64
2021/08/10 01:36:19;;;;;;;10.40;3.45;;;;;;;24.60;50.64;100450.70;1701112;84;21852;-63
2021/08/10 01:38:57;;;;;;;11.73;3.72;;;;;;;24.60;50.43;100458.20;1700707;84;21158;-65
2021/08/10 01:41:31;;;;;;;14.70;4.08;;;;;;;24.62;50.10;100447.30;1700918;84;21165;-64
2021/08/10 01:44:05;;;;;;;7.20;3.40;;;;;;;24.63;50.46;100452.42;1700577;84;21359;-64
2021/08/10 01:46:38;;;;;;;8.85;3.60;;;;;;;24.63;50.95;100441.71;1700689;84;21297;-63
2021/08/10 01:49:14;;;;;;;7.62;3.60;;;;;;;24.63;51.22;100446.24;1702392;84;22137;-64
2021/08/10 01:51:47;;;;;;;10.28;3.60;;;;;;;24.62;51.30;100445.42;1701550;84;21281;-64
2021/08/10 01:54:23;;;;;;;8.10;3.27;;;;;;;24.61;51.22;100443.80;1716069;83;21300;-64
2021/08/10 01:56:57;;;;;;;8.80;3.58;;;;;;;24.61;51.36;100447.81;1715878;83;21315;-65
2021/08/10 01:59:32;;;;;;;9.73;3.98;;;;;;;24.60;51.51;100462.73;1706669;83;21161;-63
2021/08/10 02:02:08;;;;;;;11.60;4.53;;;;;;;24.58;51.65;100456.80;1700863;84;21161;-64
2021/08/10 02:04:43;;;;;;;6.53;4.05;;;;;;;24.54;51.78;100463.13;1700352;84;21291;-64
2021/08/10 02:07:19;;;;;;;14.40;5.00;;;;;;;24.53;51.90;100467.34;1700576;84;21197;-64
2021/08/10 02:09:54;;;;;;;11.45;4.15;;;;;;;24.51;51.71;100469.43;1700175;84;21313;-65
2021/08/10 02:12:27;;;;;;;10.68;4.70;;;;;;;24.50;51.69;100459.27;1700950;84;21277;-63
2021/08/10 02:15:01;;;;;;;8.93;4.50;;;;;;;24.48;51.93;100462.66;1701732;84;21193;-64
2021/08/10 02:17:36;;;;;;;10.48;4.65;;;;;;;24.44;52.20;100473.52;1698437;84;21320;-64
2021/08/10 02:20:15;;;;;;;14.63;4.15;;;;;;;24.39;52.48;100472.02;1698473;84;21197;-63
2021/08/10 02:22:48;;;;;;;7.65;3.72;;;;;;;24.35;52.86;100468.67;1700735;84;21325;-64
2021/08/10 02:25:24;;;;;;;8.75;4.10;;;;;;;24.33;53.24;100468.08;1700077;84;21847;-64
2021/08/10 02:27:59;;;;;;;8.28;3.95;;;;;;;24.30;53.40;100471.19;1697780;84;21296;-64
2021/08/10 02:30:35;;;;;;;15.65;4.17;;;;;;;24.27;53.56;100464.41;1700214;84;21300;-64
2021/08/10 02:33:10;;;;;;;9.63;4.03;;;;;;;24.25;53.69;100460.31;1700538;84;21277;-64
2021/08/10 02:35:45;;;;;;;13.90;3.87;;;;;;;24.23;53.79;100451.19;1699505;84;21304;-64
2021/08/10 02:38:19;;;;;;;;;;;;;;;24.22;53.88;100458.11;1704624;84;21260;-64
2021/08/10 02:40:55;;;;;;;10.48;4.10;;;;;;;24.21;53.87;100445.23;1700449;84;20172;-64
2021/08/10 02:43:29;;;;;;;12.33;3.92;;;;;;;24.18;53.80;100460.38;1700896;84;21157;-64
2021/08/10 02:46:03;;;;;;;12.63;4.08;;;;;;;24.16;53.73;100439.73;1699896;84;21292;-64
2021/08/10 02:48:36;;;;;;;10.78;4.17;;;;;;;24.13;53.68;100433.47;1700221;84;21293;-64
2021/08/10 02:51:11;;;;;;;20.82;4.95;;;;;;;24.12;53.61;100442.55;1678087;84;21343;-65
2021/08/10 02:53:44;;;;;;;9.58;3.87;;;;;;;24.12;53.63;100436.38;1701048;84;21276;-64
2021/08/10 02:56:21;;;;;;;12.60;4.53;;;;;;;24.10;53.31;100466.00;1700174;84;21360;-64
2021/08/10 02:59:21;;;;;;;8.98;4.10;;;;;;;24.03;53.36;100468.70;1699682;84;21276;-65
2021/08/10 03:02:11;;;;;;;12.55;6.78;;;;;;;24.00;53.68;100465.66;1701407;84;21166;-65
2021/08/10 03:05:01;;;;;;;19.55;8.65;;;;;;;24.00;53.92;100465.12;1714592;83;21307;-64
2021/08/10 03:07:35;;;;;;;25.77;11.63;;;;;;;24.01;54.24;100448.56;1715189;83;21232;-63
2021/08/10 03:10:09;;;;;;;20.20;11.05;;;;;;;24.01;54.81;100441.36;1715186;83;21291;-64
2021/08/10 03:12:48;;;;;;;24.80;7.35;;;;;;;24.02;54.87;100425.62;1714702;83;21181;-64
2021/08/10 03:15:26;;;;;;;17.32;6.00;;;;;;;24.02;54.95;100428.30;1716109;83;21260;-64
2021/08/10 03:18:03;;;;;;;10.98;4.62;;;;;;;24.02;55.49;100413.59;1716051;83;21807;-64
2021/08/10 03:20:36;;;;;;;14.23;5.00;;;;;;;24.02;55.44;100420.80;1716098;83;21803;-64
2021/08/10 03:23:14;;;;;;;11.95;4.50;;;;;;;24.00;56.05;100430.35;1716176;83;21271;-64
2021/08/10 03:25:48;;;;;;;8.03;4.40;;;;;;;23.96;56.89;100441.70;1717746;83;21137;-64
2021/08/10 03:28:22;;;;;;;12.85;5.70;;;;;;;23.91;57.67;100441.03;1649950;83;21330;-64
2021/08/10 03:31:00;;;;;;;10.03;5.85;;;;;;;23.92;57.84;100444.53;1692813;83;21181;-65
2021/08/10 03:33:33;;;;;;;18.95;7.35;;;;;;;23.99;57.75;100446.63;1716244;83;21205;-64
2021/08/10 03:36:07;;;;;;;12.15;6.60;;;;;;;24.06;57.55;100446.05;1715976;83;21343;-64
2021/08/10 03:38:40;;;;;;;25.20;9.55;;;;;;;24.15;57.49;100445.27;1716523;83;21307;-64
2021/08/10 03:41:14;;;;;;;22.05;8.98;;;;;;;24.23;57.14;100440.99;1716146;83;21189;-64
2021/08/10 03:43:48;;;;;;;12.80;6.47;;;;;;;24.34;56.46;100442.94;1716232;83;21260;-64
2021/08/10 03:46:22;;;;;;;12.65;5.47;;;;;;;24.43;55.95;100441.64;1716086;83;21272;-64
2021/08/10 03:48:56;;;;;;;16.82;5.03;;;;;;;24.52;55.13;100441.13;1716344;83;21299;-64
2021/08/10 03:51:30;;;;;;;14.73;4.70;;;;;;;24.59;54.92;100436.52;1716984;83;21349;-65
2021/08/10 03:54:03;;;;;;;9.63;4.62;;;;;;;24.69;54.87;100438.13;1716254;83;21276;-66
2021/08/10 03:56:38;;;;;;;9.45;4.47;;;;;;;24.77;54.74;100430.90;1715839;83;21147;-66
2021/08/10 03:59:12;;;;;;;11.43;4.67;;;;;;;24.82;54.55;100428.34;1762885;81;21359;-66
2021/08/10 04:01:47;;;;;;;9.55;4.20;;;;;;;24.85;54.58;100418.02;1762853;81;21283;-65
2021/08/10 04:04:21;;;;;;;8.75;4.20;;;;;;;24.89;54.69;100408.99;1742608;81;21336;-67
2021/08/10 04:06:56;;;;;;;8.50;4.10;;;;;;;24.88;54.91;100414.07;1746660;81;21323;-67
2021/08/10 04:09:32;;;;;;;7.95;4.30;;;;;;;24.88;54.69;100429.63;1716802;83;21308;-67
2021/08/10 04:12:10;;;;;;;14.40;6.20;;;;;;;24.87;54.81;100440.54;1725751;81;21181;-68
2021/08/10 04:14:44;;;;;;;72.65;27.35;;;;;;;24.85;55.04;100436.76;1759034;81;21252;-66
2021/08/10 04:17:20;;;;;;;64.97;24.07;;;;;;;24.89;54.89;100436.59;1758548;81;21173;-66
2021/08/10 04:19:56;;;;;;;115.00;36.95;;;;;;;24.95;54.60;100433.55;1757630;81;21253;-67
2021/08/10 04:22:32;;;;;;;71.25;24.32;;;;;;;25.01;54.26;100430.78;1758953;81;21292;-65
2021/08/10 04:25:08;;;;;;;17.30;7.35;;;;;;;25.08;53.94;100428.84;1758366;81;21142;-65
2021/08/10 04:27:42;;;;;;;15.40;5.40;;;;;;;25.14;53.33;100431.14;1757929;81;21771;-65
2021/08/10 04:30:18;;;;;;;13.25;4.53;;;;;;;25.15;53.05;100426.88;1758436;81;21169;-66
2021/08/10 04:32:52;;;;;;;10.98;5.08;;;;;;;25.19;53.14;100429.42;1757759;81;21428;-66
2021/08/10 04:35:25;;;;;;;;;;;;;;;25.27;53.03;100441.15;1761151;81;21256;-65
2021/08/10 04:37:59;;;;;;;21.20;7.90;;;;;;;25.35;52.74;100434.66;1760310;81;20224;-66
2021/08/10 04:40:33;;;;;;;12.85;6.03;;;;;;;25.41;52.47;100442.59;1756189;81;21363;-67
2021/08/10 04:43:08;;;;;;;12.95;5.28;;;;;;;25.50;52.01;100445.83;1756154;81;21278;-66
2021/08/10 04:45:44;;;;;;;12.82;5.53;;;;;;;25.58;51.67;100444.13;1760059;81;21791;-66
2021/08/10 04:48:17;;;;;;;13.40;5.65;;;;;;;25.65;51.45;100438.70;1745207;81;21316;-67
2021/08/10 04:50:51;;;;;;;20.35;8.98;;;;;;;25.71;51.50;100438.59;1706910;82;22083;-68
2021/08/10 04:57:33;;;;;;;38.08;13.60;;;;;;;25.85;50.93;100435.16;1690955;84;21429;-66
2021/08/10 05:00:07;;;;;;;26.75;10.28;;;;;;;25.97;50.57;100440.84;1695896;84;21360;-68
2021/08/10 05:02:42;;;;;;;27.95;8.75;;;;;;;26.03;50.26;100435.88;1698254;84;21341;-68
2021/08/10 05:05:16;;;;;;;17.82;6.70;;;;;;;26.10;50.33;100433.11;1695031;84;21301;-71
2021/08/10 05:12:00;;;;;;;13.88;4.87;;;;;;;26.25;51.40;100427.31;1728641;82;21479;-69
2021/08/10 05:14:33;;;;;;;17.37;4.90;;;;;;;26.37;50.91;100428.09;1730496;82;21409;-68
2021/08/10 05:21:19;;;;;;;11.80;4.10;;;;;;;26.58;50.35;100418.91;1709289;83;21177;-65
2021/08/10 05:28:04;;;;;;;16.10;4.15;;;;;;;27.34;48.17;100405.14;1723177;82;21193;-67
2021/08/10 05:34:48;;;;;;;19.57;3.65;;;;;;;27.57;47.63;100416.84;1715005;83;22199;-67
2021/08/10 05:37:22;;;;;;;11.12;3.75;;;;;;;27.88;47.42;100413.59;1731242;82;21304;-71
2021/08/10 05:39:55;;;;;;;7.30;3.92;;;;;;;28.07;46.86;100406.92;1730285;82;21382;-66
2021/08/10 05:42:28;;;;;;;24.15;4.22;;;;;;;28.29;46.12;100416.41;1730151;82;21303;-67
2021/08/10 05:45:02;;;;;;;22.42;3.55;;;;;;;28.49;45.76;100407.27;1729904;82;21382;-70
2021/08/10 05:47:36;;;;;;;8.53;2.50;;;;;;;28.71;42.47;100404.62;1731293;82;21225;-66
2021/08/10 05:50:11;;;;;;;20.90;2.47;;;;;;;28.94;40.01;100410.55;1732363;82;21184;-71
2021/08/10 05:52:44;;;;;;;24.67;3.00;;;;;;;29.24;36.21;100408.20;1733917;82;21588;-71
2021/08/10 05:55:30;;;;;;;7.67;2.00;;;;;;;29.62;33.24;100409.09;1730111;82;21260;-73
2021/08/10 05:58:04;;;;;;;7.37;1.70;;;;;;;30.00;30.88;100409.70;1731730;82;21363;-73
2021/08/10 06:00:37;;;;;;;8.43;1.40;;;;;;;30.36;29.35;100413.46;1730307;82;21342;-75
2021/08/10 06:03:12;;;;;;;6.25;1.80;;;;;;;30.67;27.90;100411.72;1731688;82;21320;-72
2021/08/10 06:05:46;;;;;;;4.80;1.35;;;;;;;30.95;27.36;100415.93;1730130;82;21315;-70
2021/08/10 06:08:19;;;;;;;8.90;1.40;;;;;;;31.11;27.11;100429.23;1728361;82;21693;-74
2021/08/10 06:10:54;;;;;;;2.70;1.50;;;;;;;31.25;27.04;100418.17;1727086;82;21217;-68
2021/08/10 06:13:28;;;;;;;6.62;1.60;;;;;;;31.33;25.16;100412.20;1728738;83;21334;-70
2021/08/10 06:16:02;;;;;;;11.80;1.80;;;;;;;31.40;24.42;100418.73;1733228;83;21340;-71
2021/08/10 06:18:34;;;;;;;;;;;;;;;31.39;24.81;100413.04;1731593;83;21554;-68
2021/08/10 06:21:09;;;;;;;5.40;1.47;;;;;;;31.33;25.79;100412.77;1727776;83;20384;-71
2021/08/10 06:27:53;;;;;;;9.13;1.67;;;;;;;31.13;25.29;100416.25;1727061;83;21192;-71
2021/08/10 06:30:27;;;;;;;12.73;1.60;;;;;;;31.04;25.41;100417.84;1722026;83;21328;-73
2021/08/10 06:33:00;;;;;;;14.73;1.85;;;;;;;31.23;25.20;100418.16;1727419;83;21390;-70
2021/08/10 06:35:35;;;;;;;6.97;1.30;;;;;;;31.53;25.11;100417.41;1722133;83;21331;-68
2021/08/10 06:38:07;;;;;;;;;;;;;;;31.79;24.87;100419.03;1732515;83;21375;-67
2021/08/10 06:40:42;;;;;;;7.50;1.57;;;;;;;31.95;25.20;100419.31;1732517;83;20281;-70
2021/08/10 06:43:15;;;;;;;13.03;2.10;;;;;;;31.95;24.75;100418.78;1727724;83;21209;-70
2021/08/10 06:45:50;;;;;;;6.60;1.57;;;;;;;31.92;24.46;100419.85;1727914;83;21605;-68
2021/08/10 06:48:23;;;;;;;7.17;1.72;;;;;;;31.86;24.12;100412.27;1729008;83;21436;-71
2021/08/10 06:50:58;;;;;;;6.80;1.72;;;;;;;31.76;23.64;100415.53;1727881;83;21315;-70
2021/08/10 06:53:33;;;;;;;7.55;1.45;;;;;;;31.68;23.47;100420.13;1727678;83;21371;-69
2021/08/10 06:56:07;;;;;;;5.15;1.35;;;;;;;31.59;23.74;100416.34;1727898;83;21621;-72
2021/08/10 06:58:40;;;;;;;9.58;1.92;;;;;;;31.50;23.07;100416.08;1728502;83;21311;-69
2021/08/10 07:01:15;;;;;;;4.33;1.52;;;;;;;31.38;22.67;100423.61;1724505;83;21440;-70
2021/08/10 07:03:49;;;;;;;6.67;1.72;;;;;;;31.27;23.00;100417.35;1729277;83;21324;-69
2021/08/10 07:06:23;;;;;;;9.63;1.85;;;;;;;31.18;22.81;100417.61;1727666;83;22138;-72
2021/08/10 07:08:59;;;;;;;11.43;2.15;;;;;;;31.12;23.07;100420.02;1729217;82;21226;-70
2021/08/10 07:11:33;;;;;;;10.15;1.85;;;;;;;31.08;23.23;100423.52;1730275;82;22039;-68
2021/08/10 07:14:11;;;;;;;18.52;2.45;;;;;;;31.06;23.40;100428.39;1731132;82;21321;-68
2021/08/10 07:16:44;;;;;;;10.58;2.00;;;;;;;31.08;23.87;100431.10;1730513;82;21307;-67
2021/08/10 07:19:18;;;;;;;7.95;2.00;;;;;;;31.12;23.34;100430.83;1731030;82;21313;-66
2021/08/10 07:21:51;;;;;;;;;;;;;;;31.21;22.67;100427.09;1732562;82;21379;-66
2021/08/10 07:24:26;;;;;;;11.95;1.62;;;;;;;31.35;22.18;100430.90;1726911;83;20835;-70
2021/08/10 07:26:59;;;;;;;7.97;2.37;;;;;;;31.57;22.53;100426.63;1728227;82;21318;-67
2021/08/10 07:29:35;;;;;;;10.60;2.15;;;;;;;31.93;23.46;100419.56;1732063;82;21387;-72
2021/08/10 07:32:10;;;;;;;18.70;2.17;;;;;;;32.47;22.64;100410.30;1730059;82;21332;-70
2021/08/10 07:34:44;;;;;;;5.15;1.47;;;;;;;32.99;22.32;100409.81;1731170;82;22027;-74
2021/08/10 07:37:21;;;;;;;5.92;1.70;;;;;;;33.42;21.68;100402.78;1730040;82;22075;-67
2021/08/10 07:39:54;;;;;;;7.35;2.72;;;;;;;33.64;19.57;100409.16;1731229;82;21567;-69
2021/08/10 07:42:30;;;;;;;6.92;1.60;;;;;;;33.69;19.32;100396.36;1729539;82;21522;-70
2021/08/10 07:45:07;;;;;;;7.45;1.60;;;;;;;33.78;18.92;100404.69;1731300;82;21304;-69
2021/08/10 07:47:41;;;;;;;11.12;1.90;;;;;;;33.87;17.80;100404.33;1729944;82;21220;-73
2021/08/10 07:50:16;;;;;;;3.22;1.25;;;;;;;34.22;18.45;100397.78;1733073;82;21312;-74
2021/08/10 07:52:49;;;;;;;6.03;1.30;;;;;;;35.09;17.33;100393.17;1735801;82;21328;-72
2021/08/10 07:55:24;;;;;;;13.00;1.80;;;;;;;36.17;16.77;100383.78;1731520;82;22105;-76
2021/08/10 07:57:58;;;;;;;8.58;1.62;;;;;;;37.31;15.86;100383.53;1730054;82;21566;-74
2021/08/10 08:00:34;;;;;;;9.20;1.35;;;;;;;38.36;14.54;100371.80;1730182;82;21280;-74
2021/08/10 08:03:10;;;;;;;1.92;1.07;;;;;;;38.95;13.46;100369.53;1730172;82;22023;-74
2021/08/10 08:05:44;;;;;;;4.67;1.57;;;;;;;39.13;13.35;100369.77;1732391;82;21291;-71
2021/08/10 08:08:19;;;;;;;3.20;1.17;;;;;;;39.47;13.28;100363.48;1729995;82;21221;-72
2021/08/10 08:10:54;;;;;;;3.58;1.20;;;;;;;40.06;12.95;100363.91;1728297;82;22136;-73
2021/08/10 08:13:29;;;;;;;8.03;1.80;;;;;;;40.66;12.19;100358.12;1730564;82;21220;-76
2021/08/10 08:16:04;;;;;;;5.30;1.22;;;;;;;41.04;11.98;100354.45;1734447;83;21193;-74
2021/08/10 08:18:39;;;;;;;2.42;1.00;;;;;;;40.98;11.37;100355.25;1729741;83;21308;-77
2021/08/10 08:21:13;;;;;;;6.90;1.35;;;;;;;40.51;12.13;100348.31;1729289;83;21968;-74
2021/08/10 08:23:49;;;;;;;5.50;1.52;;;;;;;39.94;12.41;100345.14;1728299;83;21332;-75
2021/08/10 08:26:25;;;;;;;7.70;1.45;;;;;;;39.27;12.37;100343.03;1728745;83;21424;-73
2021/08/10 08:29:02;;;;;;;4.97;1.45;;;;;;;38.77;12.57;100345.44;1727440;83;21196;-73
2021/08/10 08:31:35;;;;;;;2.70;1.25;;;;;;;38.64;12.53;100352.41;1728684;83;22076;-74
2021/08/10 08:34:09;;;;;;;8.28;1.12;;;;;;;38.55;12.91;100350.22;1728115;83;21602;-71
2021/08/10 08:36:43;;;;;;;2.25;1.17;;;;;;;38.55;13.32;100352.95;1728913;83;21367;-73
2021/08/10 08:39:16;;;;;;;5.75;1.30;;;;;;;38.55;13.26;100354.33;1733570;83;21341;-70
2021/08/10 08:41:50;;;;;;;5.22;1.10;;;;;;;38.62;13.51;100349.97;1731195;83;21324;-71
2021/08/10 08:44:24;;;;;;;6.35;1.62;;;;;;;38.66;13.64;100359.73;1728464;83;21357;-70
2021/08/10 08:46:58;;;;;;;4.15;1.15;;;;;;;39.07;13.89;100359.52;1728681;83;21221;-72
2021/08/10 08:49:32;;;;;;;6.80;1.40;;;;;;;39.46;13.29;100353.08;1728823;83;21335;-69
2021/08/10 08:52:12;;;;;;;3.72;1.35;;;;;;;39.53;13.60;100353.94;1728812;83;21228;-70
2021/08/10 08:54:47;;;;;;;3.45;1.20;;;;;;;39.46;13.16;100354.45;1710505;83;21378;-68
2021/08/10 08:57:21;;;;;;;7.30;1.25;;;;;;;39.32;13.67;100344.80;1728679;83;21335;-70
2021/08/10 08:59:54;;;;;;;10.43;1.67;;;;;;;39.16;13.83;100345.87;1728756;83;21327;-69
2021/08/10 09:02:27;;;;;;;6.40;1.60;;;;;;;39.00;13.84;100342.78;1730831;83;21205;-67
2021/08/10 09:05:01;;;;;;;8.20;1.52;;;;;;;38.76;14.09;100341.66;1731319;83;22118;-68
2021/08/10 09:07:34;;;;;;;4.42;1.30;;;;;;;38.49;14.22;100344.64;1730770;81;21474;-68
2021/08/10 09:10:12;;;;;;;2.15;1.25;;;;;;;38.21;14.10;100343.52;1696925;84;21490;-68
2021/08/10 09:17:14;;;;;;;5.60;1.60;;;;;;;37.53;14.30;100335.77;1693211;84;21134;-68
2021/08/10 09:19:57;;;;;;;3.42;1.50;;;;;;;36.91;15.19;100342.95;1685921;83;21189;-67
2021/08/10 09:22:34;;;;;;;7.62;1.70;;;;;;;36.58;14.82;100346.17;1680868;84;21233;-67
2021/08/10 09:25:18;;;;;;;5.90;1.90;;;;;;;36.26;15.45;100348.44;1693911;84;21220;-68
2021/08/10 09:31:40;;;;;;;17.00;1.98;;;;;;;35.86;15.33;100375.89;1668220;86;21197;-66
2021/08/10 09:34:28;;;;;;;11.95;1.92;;;;;;;35.95;13.84;100345.47;1667177;86;21224;-65
2021/08/10 09:37:03;;;;;;;11.75;1.92;;;;;;;36.41;13.30;100346.77;1670919;85;22128;-64
2021/08/10 09:39:38;;;;;;;32.08;3.17;;;;;;;36.45;13.54;100338.22;1668401;84;21652;-64
2021/08/10 09:42:13;;;;;;;6.87;2.05;;;;;;;36.36;13.73;100329.15;1667962;86;22104;-68
2021/08/10 09:45:05;;;;;;;4.90;1.30;;;;;;;36.32;14.13;100321.33;1636288;87;21351;-68
2021/08/10 09:47:43;;;;;;;10.48;2.00;;;;;;;36.15;14.11;100326.04;1624906;88;21343;-69
2021/08/10 09:50:25;;;;;;;57.53;4.67;;;;;;;36.13;14.10;100330.99;1670250;86;21323;-67
2021/08/10 09:53:02;;;;;;;9.98;1.85;;;;;;;36.20;14.22;100326.48;1638954;87;21320;-67
2021/08/10 09:55:35;;;;;;;18.62;2.02;;;;;;;35.99;14.30;100319.83;1603382;88;21236;-70
2021/08/10 10:02:23;;;;;;;4.15;1.62;;;;;;;35.57;15.18;100337.99;1635739;87;21193;-67
2021/08/10 10:04:57;;;;;;;6.90;1.42;;;;;;;35.49;15.49;100340.58;1665186;86;21545;-67
2021/08/10 10:07:31;;;;;;;16.82;2.77;;;;;;;35.33;15.74;100335.11;1636688;87;21388;-65
2021/08/10 10:13:52;;;;;;;20.75;2.42;;;;;;;34.81;20.90;100352.48;1666645;85;21221;-74
2021/08/10 10:16:27;;;;;;;10.85;2.12;;;;;;;34.36;21.05;100381.86;1701077;84;21280;-69
2021/08/10 10:19:15;;;;;;;12.10;2.92;;;;;;;34.22;21.32;100365.98;1734384;82;21224;-67
2021/08/10 10:21:50;;;;;;;21.77;2.75;;;;;;;34.10;22.86;100396.00;1731152;82;21188;-70
2021/08/10 10:24:24;;;;;;;23.32;3.05;;;;;;;33.74;25.22;100379.21;1732188;82;21307;-66
2021/08/10 10:27:04;;;;;;;20.15;2.33;;;;;;;33.30;25.91;100428.11;1731329;82;21180;-68
2021/08/10 10:29:37;;;;;;;8.10;2.40;;;;;;;32.78;27.91;100373.05;1732032;82;22032;-66
2021/08/10 10:32:10;;;;;;;20.88;2.70;;;;;;;32.39;30.27;100402.72;1732684;82;21318;-70
2021/08/10 10:34:44;;;;;;;11.55;2.95;;;;;;;32.04;31.93;100423.13;1731822;82;21221;-69
2021/08/10 10:37:26;;;;;;;19.92;3.10;;;;;;;31.79;32.90;100401.44;1731781;82;21354;-70
2021/08/10 10:40:21;;;;;;;;;;;;;;;31.51;34.16;100411.45;1739007;82;21378;-69
2021/08/10 10:42:56;;;;;;;10.30;2.58;;;;;;;31.17;34.66;100424.09;1684166;83;20191;-67
2021/08/10 10:45:42;;;;;;;10.78;2.60;;;;;;;30.67;35.29;100441.45;1685297;85;21346;-66
2021/08/10 10:48:32;;;;;;;14.10;3.02;;;;;;;30.23;36.09;100447.67;1688891;85;21200;-69
2021/08/10 10:51:15;;;;;;;19.40;3.25;;;;;;;29.71;41.21;100434.55;1698544;84;21387;-67
2021/08/10 10:53:48;;;;;;;;;;;;;;;28.87;45.71;100432.84;1700058;84;21364;-63
2021/08/10 10:56:30;;;;;;;12.78;3.52;;;;;;;27.98;49.05;100434.77;1696404;84;20341;-66
2021/08/10 10:59:25;;;;;;;7.67;3.33;;;;;;;27.12;52.65;100415.46;1688532;84;21304;-65
2021/08/10 11:02:17;;;;;;;11.45;2.55;;;;;;;26.44;54.32;100418.08;1688561;85;21595;-65
2021/08/10 11:05:22;;;;;;;14.50;2.98;;;;;;;26.00;52.29;100412.73;1676607;84;21225;-65
2021/08/10 11:07:59;;;;;;;10.78;3.35;;;;;;;25.76;54.92;100410.56;1687660;85;21624;-66
2021/08/10 11:10:48;;;;;;;7.85;2.67;;;;;;;25.64;56.37;100423.64;1687669;85;21332;-65
2021/08/10 11:13:26;;;;;;;7.97;2.70;;;;;;;25.65;56.94;100430.11;1687641;85;21319;-65
2021/08/10 11:16:00;;;;;;;9.03;2.72;;;;;;;25.57;57.20;100437.16;1687321;85;21233;-65
2021/08/10 11:22:44;;;;;;;6.87;3.30;;;;;;;25.41;57.00;100433.22;1687283;85;22033;-67
2021/08/10 11:25:24;;;;;;;9.53;3.00;;;;;;;25.31;57.24;100434.83;1688850;85;21485;-65
2021/08/10 11:28:00;;;;;;;14.33;3.55;;;;;;;25.06;58.38;100434.94;1686831;85;21340;-68
2021/08/10 11:30:44;;;;;;;11.85;3.70;;;;;;;25.06;58.38;100434.94;1673940;85;21307;-66
2021/08/10 11:33:38;;;;;;;15.25;4.17;;;;;;;24.95;59.77;100445.60;1675102;85;21209;-65
2021/08/10 11:36:17;;;;;;;10.63;3.22;;;;;;;24.85;61.04;100443.97;1672112;85;21772;-66
2021/08/10 11:38:57;;;;;;;20.62;10.82;;;;;;;24.62;62.04;100429.36;1678195;85;21177;-65
2021/08/10 11:41:39;;;;;;;9.13;3.95;;;;;;;24.54;62.46;100433.69;1672119;85;21299;-67
2021/08/10 11:44:25;;;;;;;6.17;2.72;;;;;;;24.46;62.35;100417.08;1660538;86;21348;-68
2021/08/10 11:47:03;;;;;;;8.90;3.05;;;;;;;24.37;62.04;100410.39;1661380;85;21351;-67
2021/08/10 11:49:44;;;;;;;8.15;3.08;;;;;;;24.33;61.94;100398.50;1665539;85;21229;-69
2021/08/10 11:52:23;;;;;;;5.92;2.60;;;;;;;24.31;61.05;100408.11;1668459;85;21407;-68
2021/08/10 11:55:02;;;;;;;6.70;2.67;;;;;;;24.30;60.23;100423.84;1639812;86;21212;-70
2021/08/10 11:57:38;;;;;;;9.33;2.80;;;;;;;24.28;59.32;100411.73;1659496;85;21363;-66
2021/08/10 12:00:17;;;;;;;8.88;3.08;;;;;;;24.27;59.01;100411.41;1638849;86;22099;-66
2021/08/10 12:02:50;;;;;;;5.20;2.67;;;;;;;24.27;59.33;100413.58;1659764;86;21411;-65
2021/08/10 12:05:24;;;;;;;4.97;2.50;;;;;;;24.29;59.09;100417.39;1663612;85;21468;-65
2021/08/10 12:08:00;;;;;;;9.15;3.33;;;;;;;24.30;59.69;100425.19;1662350;86;21403;-64
2021/08/10 12:10:36;;;;;;;6.35;2.70;;;;;;;24.33;60.03;100435.97;1663233;85;21586;-64
2021/08/10 12:13:24;;;;;;;10.98;2.90;;;;;;;24.32;60.28;100424.44;1663243;86;22129;-65
2021/08/10 12:15:59;;;;;;;6.92;2.70;;;;;;;24.31;59.76;100425.50;1666199;84;21253;-66
2021/08/10 12:18:33;;;;;;;5.25;2.25;;;;;;;24.30;59.60;100439.08;1661339;85;21336;-67
2021/08/10 12:21:07;;;;;;;5.58;2.40;;;;;;;24.23;59.04;100432.45;1663171;85;21360;-65
2021/08/10 12:23:44;;;;;;;5.78;2.35;;;;;;;24.14;59.23;100438.30;1658844;85;21461;-67
2021/08/10 12:26:19;;;;;;;9.03;2.72;;;;;;;23.94;59.52;100429.91;1663806;86;21352;-67
2021/08/10 12:29:04;;;;;;;4.15;2.72;;;;;;;23.75;61.27;100412.16;1663081;85;21193;-66
2021/08/10 12:31:38;;;;;;;9.63;2.65;;;;;;;23.61;62.17;100419.98;1664621;85;21201;-68
2021/08/10 12:34:11;;;;;;;6.03;2.65;;;;;;;23.51;62.36;100434.84;1617266;85;21280;-67
2021/08/10 12:36:52;;;;;;;4.92;2.75;;;;;;;23.43;62.83;100444.75;1661543;84;21209;-65
2021/08/10 12:39:26;;;;;;;7.30;3.27;;;;;;;23.42;63.75;100436.97;1669693;85;21198;-64
2021/08/10 12:42:00;;;;;;;6.42;2.58;;;;;;;23.35;65.20;100438.34;1663400;85;21355;-65
2021/08/10 12:44:34;;;;;;;7.50;3.10;;;;;;;23.26;65.23;100424.88;1672724;84;21347;-66
2021/08/10 12:47:09;;;;;;;6.60;2.42;;;;;;;23.19;65.60;100433.45;1674577;85;21204;-64
2021/08/10 12:49:45;;;;;;;4.97;2.67;;;;;;;23.15;64.92;100429.58;1674771;85;21208;-64